createdAt,value
2022-12-05T00:02:02.291Z,3.00
2022-12-05T00:04:30.504Z,3.00
2022-12-05T00:06:59.163Z,3.00
2022-12-05T00:09:27.385Z,2.90
2022-12-05T00:11:57.699Z,3.00
2022-12-05T00:14:26.172Z,3.10
2022-12-05T00:16:56.096Z,3.10
2022-12-05T00:19:24.276Z,3.00
2022-12-05T00:21:52.783Z,2.90
2022-12-05T00:24:22.197Z,2.90
2022-12-05T00:26:50.679Z,3.00
2022-12-05T00:29:19.168Z,3.10
2022-12-05T00:31:47.748Z,3.00
2022-12-05T00:34:17.700Z,3.00
2022-12-05T00:36:46.734Z,3.00
2022-12-05T00:39:15.750Z,3.00
2022-12-05T00:41:44.627Z,3.00
2022-12-05T00:44:14.141Z,3.00
2022-12-05T00:46:43.575Z,3.00
2022-12-05T00:49:13.031Z,3.00
2022-12-05T00:51:44.587Z,3.00
2022-12-05T00:54:15.172Z,2.90
2022-12-05T00:56:44.399Z,2.90
2022-12-05T00:59:17.829Z,2.90
2022-12-05T01:01:48.185Z,2.80
2022-12-05T01:04:18.938Z,2.80
2022-12-05T01:06:49.405Z,2.80
2022-12-05T01:09:20.512Z,2.80
2022-12-05T01:11:50.044Z,2.80
2022-12-05T01:14:20.071Z,2.80
2022-12-05T01:16:49.961Z,2.80
2022-12-05T01:19:23.403Z,2.90
2022-12-05T01:21:54.007Z,3.00
2022-12-05T01:24:23.246Z,3.00
2022-12-05T01:26:55.495Z,3.00
2022-12-05T01:29:25.698Z,2.90
2022-12-05T01:31:54.934Z,2.90
2022-12-05T01:34:24.346Z,2.90
2022-12-05T01:36:54.265Z,2.80
2022-12-05T01:39:22.724Z,2.80
2022-12-05T01:41:52.372Z,2.80
2022-12-05T01:44:58.050Z,2.90
2022-12-05T01:47:29.620Z,2.80
2022-12-05T01:50:00.029Z,2.90
2022-12-05T01:52:32.461Z,2.90
2022-12-05T01:55:06.172Z,2.90
2022-12-05T01:57:35.250Z,2.90
2022-12-05T02:00:09.655Z,2.90
2022-12-05T02:02:38.800Z,2.90
2022-12-05T02:05:10.878Z,2.90
2022-12-05T02:07:43.776Z,3.00
2022-12-05T02:10:12.596Z,3.00
2022-12-05T02:12:44.165Z,3.00
2022-12-05T02:15:30.575Z,3.00
2022-12-05T02:18:09.701Z,3.00
2022-12-05T02:20:49.656Z,2.90
2022-12-05T02:23:30.778Z,2.90
2022-12-05T02:26:41.605Z,2.90
2022-12-05T02:29:52.065Z,2.90
2022-12-05T02:32:32.873Z,2.90
2022-12-05T02:35:11.522Z,2.90
2022-12-05T02:37:45.665Z,2.90
2022-12-05T02:40:22.791Z,2.90
2022-12-05T02:42:54.545Z,2.80
2022-12-05T02:45:27.280Z,2.80
2022-12-05T02:47:58.061Z,2.80
2022-12-05T02:50:30.711Z,2.70
2022-12-05T02:53:03.504Z,2.80
2022-12-05T02:55:33.747Z,2.80
2022-12-05T02:58:05.430Z,2.90
2022-12-05T03:00:33.813Z,2.90
2022-12-05T03:03:03.669Z,2.90
2022-12-05T03:05:41.263Z,2.90
2022-12-05T03:08:14.353Z,2.90
2022-12-05T03:10:44.254Z,3.00
2022-12-05T03:13:17.551Z,3.00
2022-12-05T03:15:50.143Z,3.00
2022-12-05T03:18:25.916Z,2.90
2022-12-05T03:21:00.671Z,2.80
2022-12-05T03:23:33.838Z,2.90
2022-12-05T03:26:12.114Z,2.90
2022-12-05T03:28:51.008Z,2.90
2022-12-05T03:31:24.685Z,3.00
2022-12-05T03:34:00.323Z,2.80
2022-12-05T03:36:36.392Z,2.80
2022-12-05T03:39:11.040Z,2.80
2022-12-05T03:41:43.138Z,2.80
2022-12-05T03:44:15.319Z,2.80
2022-12-05T03:46:48.266Z,2.80
2022-12-05T03:49:23.785Z,2.90
2022-12-05T03:51:57.328Z,2.90
2022-12-05T03:54:29.001Z,2.80
2022-12-05T03:57:03.834Z,2.80
2022-12-05T03:59:37.222Z,2.80
2022-12-05T04:02:10.257Z,2.80
2022-12-05T04:04:45.422Z,2.80
2022-12-05T04:07:15.747Z,2.80
2022-12-05T04:09:48.677Z,2.90
2022-12-05T04:12:23.415Z,3.00
2022-12-05T04:14:57.227Z,3.00
2022-12-05T04:17:31.877Z,2.90
2022-12-05T04:20:23.101Z,3.00
2022-12-05T04:22:52.546Z,3.00
2022-12-05T04:25:35.729Z,3.10
2022-12-05T04:28:21.458Z,3.10
2022-12-05T04:30:55.716Z,3.20
2022-12-05T04:33:28.615Z,3.20
2022-12-05T04:36:03.391Z,3.20
2022-12-05T04:38:37.603Z,3.10
2022-12-05T04:41:10.386Z,3.10
2022-12-05T04:43:42.056Z,3.00
2022-12-05T04:46:13.512Z,3.00
2022-12-05T04:48:46.567Z,3.00
2022-12-05T04:51:19.752Z,3.20
2022-12-05T04:53:50.731Z,3.10
2022-12-05T04:56:23.068Z,3.10
2022-12-05T04:58:51.686Z,3.00
2022-12-05T05:01:24.093Z,3.10
2022-12-05T05:03:55.873Z,3.10
2022-12-05T05:06:26.690Z,3.00
2022-12-05T05:08:57.245Z,3.00
2022-12-05T05:11:27.758Z,3.00
2022-12-05T05:13:56.642Z,3.00
2022-12-05T05:16:27.564Z,3.00
2022-12-05T05:18:55.917Z,3.10
2022-12-05T05:21:27.343Z,3.00
2022-12-05T05:23:56.772Z,3.00
2022-12-05T05:26:26.457Z,3.00
2022-12-05T05:28:55.134Z,3.10
2022-12-05T05:31:23.510Z,3.10
2022-12-05T05:33:52.475Z,3.20
2022-12-05T05:36:22.459Z,3.00
2022-12-05T05:38:54.296Z,3.00
2022-12-05T05:41:24.376Z,3.10
2022-12-05T05:43:53.592Z,3.10
2022-12-05T05:46:23.996Z,3.00
2022-12-05T05:48:52.356Z,3.10
2022-12-05T05:51:22.069Z,3.10
2022-12-05T05:53:51.802Z,3.10
2022-12-05T05:56:22.189Z,2.90
2022-12-05T05:58:57.265Z,2.90
2022-12-05T06:01:25.589Z,3.00
2022-12-05T06:03:53.936Z,3.00
2022-12-05T06:06:23.232Z,3.00
2022-12-05T06:08:52.885Z,3.10
2022-12-05T06:11:26.310Z,3.00
2022-12-05T06:13:55.943Z,3.00
2022-12-05T06:16:25.243Z,3.10
2022-12-05T06:18:54.448Z,3.10
2022-12-05T06:21:23.351Z,3.00
2022-12-05T06:23:52.985Z,2.90
2022-12-05T06:26:23.363Z,2.90
2022-12-05T06:28:52.010Z,3.10
2022-12-05T06:31:23.083Z,3.00
2022-12-05T06:33:52.311Z,3.00
2022-12-05T06:36:23.543Z,3.10
2022-12-05T06:38:53.392Z,3.20
2022-12-05T06:41:24.711Z,3.20
2022-12-05T06:44:01.481Z,3.10
2022-12-05T06:46:30.600Z,3.10
2022-12-05T06:48:59.786Z,3.10
2022-12-05T06:51:28.146Z,3.10
2022-12-05T06:53:58.509Z,3.10
2022-12-05T06:56:26.979Z,3.20
2022-12-05T06:58:55.743Z,3.30
2022-12-05T07:01:41.495Z,3.20
2022-12-05T07:04:13.711Z,3.20
2022-12-05T07:06:48.758Z,3.20
2022-12-05T07:09:21.592Z,3.20
2022-12-05T07:11:54.130Z,3.30
2022-12-05T07:14:46.355Z,3.20
2022-12-05T07:17:11.726Z,3.20
2022-12-05T07:19:39.981Z,3.30
2022-12-05T07:22:12.166Z,3.30
2022-12-05T07:24:46.380Z,3.30
2022-12-05T07:27:18.444Z,3.30
2022-12-05T07:29:51.969Z,3.30
2022-12-05T07:32:20.269Z,3.30
2022-12-05T07:34:53.488Z,3.40
2022-12-05T07:37:24.047Z,3.40
2022-12-05T07:39:54.796Z,3.30
2022-12-05T07:42:23.115Z,3.40
2022-12-05T07:44:51.650Z,3.40
2022-12-05T07:47:19.955Z,3.50
2022-12-05T07:49:48.156Z,3.60
2022-12-05T07:52:16.735Z,3.60
2022-12-05T07:54:44.936Z,3.60
2022-12-05T07:57:14.707Z,3.60
2022-12-05T07:59:43.338Z,3.60
2022-12-05T08:02:11.615Z,3.70
2022-12-05T08:04:39.807Z,3.70
2022-12-05T08:07:11.144Z,3.70
2022-12-05T08:09:39.388Z,3.70
2022-12-05T08:12:08.477Z,3.70
2022-12-05T08:14:38.594Z,3.70
2022-12-05T08:17:06.792Z,3.70
2022-12-05T08:19:35.028Z,3.70
2022-12-05T08:22:03.635Z,3.70
2022-12-05T08:24:31.982Z,3.80
2022-12-05T08:27:00.332Z,3.80
2022-12-05T08:29:28.843Z,3.80
2022-12-05T08:31:58.783Z,3.80
2022-12-05T08:34:27.405Z,3.80
2022-12-05T08:36:55.728Z,3.80
2022-12-05T08:39:24.046Z,3.90
2022-12-05T08:41:53.288Z,3.90
2022-12-05T08:44:21.652Z,3.90
2022-12-05T08:46:51.222Z,4.00
2022-12-05T08:49:20.857Z,4.10
2022-12-05T08:51:49.683Z,4.10
2022-12-05T08:54:18.751Z,4.10
2022-12-05T08:56:47.674Z,4.10
2022-12-05T08:59:15.917Z,4.10
2022-12-05T09:01:44.245Z,4.10
2022-12-05T09:04:13.435Z,4.10
2022-12-05T09:06:43.482Z,4.10
2022-12-05T09:09:13.391Z,4.10
2022-12-05T09:11:46.800Z,4.20
2022-12-05T09:14:15.773Z,4.20
2022-12-05T09:16:47.776Z,4.30
2022-12-05T09:19:17.869Z,4.30
2022-12-05T09:21:47.922Z,4.30
2022-12-05T09:24:16.451Z,4.30
2022-12-05T09:26:45.765Z,4.40
2022-12-05T09:29:17.184Z,4.50
2022-12-05T09:31:47.393Z,4.50
2022-12-05T09:34:16.006Z,4.50
2022-12-05T09:36:44.823Z,4.60
2022-12-05T09:39:14.967Z,4.60
2022-12-05T09:42:08.386Z,4.60
2022-12-05T09:44:55.409Z,4.60
2022-12-05T09:47:33.759Z,4.60
2022-12-05T09:50:13.267Z,4.70
2022-12-05T09:52:51.143Z,4.70
2022-12-05T09:55:22.179Z,4.70
2022-12-05T09:57:55.098Z,4.60
2022-12-05T10:00:23.973Z,4.70
2022-12-05T10:03:04.284Z,4.70
2022-12-05T10:05:39.226Z,4.70
2022-12-05T10:08:15.959Z,4.90
2022-12-05T10:10:58.605Z,4.80
2022-12-05T10:13:47.094Z,4.80
2022-12-05T10:16:20.991Z,4.90
2022-12-05T10:18:56.401Z,4.90
2022-12-05T10:21:31.807Z,4.90
2022-12-05T10:24:02.737Z,5.00
2022-12-05T10:26:38.072Z,5.00
2022-12-05T10:29:15.918Z,5.00
2022-12-05T10:31:46.451Z,4.90
2022-12-05T10:34:30.925Z,5.10
2022-12-05T10:37:09.406Z,5.10
2022-12-05T10:39:37.768Z,5.10
2022-12-05T10:42:10.555Z,5.10
2022-12-05T10:44:39.333Z,5.10
2022-12-05T10:47:07.963Z,5.20
2022-12-05T10:49:36.877Z,5.10
2022-12-05T10:52:05.974Z,5.30
2022-12-05T10:54:43.005Z,5.20
2022-12-05T10:57:24.765Z,5.20
2022-12-05T10:59:53.798Z,5.10
2022-12-05T11:02:27.076Z,5.00
2022-12-05T11:04:57.446Z,5.10
2022-12-05T11:07:30.627Z,5.10
2022-12-05T11:10:00.224Z,5.10
2022-12-05T11:12:37.470Z,5.10
2022-12-05T11:15:22.022Z,5.20
2022-12-05T11:17:51.613Z,5.20
2022-12-05T11:20:41.602Z,5.30
2022-12-05T11:23:28.782Z,5.30
2022-12-05T11:25:58.620Z,5.20
2022-12-05T11:28:35.265Z,5.30
2022-12-05T11:31:09.518Z,5.20
2022-12-05T11:33:38.808Z,5.30
2022-12-05T11:36:14.495Z,5.30
2022-12-05T11:38:43.490Z,5.40
2022-12-05T11:41:35.510Z,5.40
2022-12-05T11:44:19.691Z,5.40
2022-12-05T11:47:01.383Z,5.40
2022-12-05T11:49:44.847Z,5.30
2022-12-05T11:52:23.038Z,5.40
2022-12-05T11:55:06.859Z,5.40
2022-12-05T11:57:44.139Z,5.50
2022-12-05T12:00:24.085Z,5.50
2022-12-05T12:03:20.268Z,5.40
2022-12-05T12:06:02.221Z,5.60
2022-12-05T12:08:32.171Z,5.70
2022-12-05T12:11:09.455Z,5.60
2022-12-05T12:13:53.979Z,5.60
2022-12-05T12:16:36.368Z,5.60
2022-12-05T12:19:19.152Z,5.70
2022-12-05T12:22:05.469Z,5.70
2022-12-05T12:24:58.830Z,5.80
2022-12-05T12:27:36.866Z,5.70
2022-12-05T12:30:12.576Z,5.70
2022-12-05T12:32:50.988Z,5.80
2022-12-05T12:35:41.738Z,5.90
2022-12-05T12:38:31.931Z,6.00
2022-12-05T12:41:09.914Z,5.90
2022-12-05T12:43:54.518Z,6.00
2022-12-05T12:46:37.866Z,5.90
2022-12-05T12:49:31.995Z,6.00
2022-12-05T12:52:04.175Z,6.10
2022-12-05T12:55:05.658Z,6.10
2022-12-05T12:57:53.102Z,6.00
2022-12-05T13:00:30.957Z,6.00
2022-12-05T13:03:05.539Z,5.80
2022-12-05T13:05:40.355Z,5.90
2022-12-05T13:08:15.545Z,5.90
2022-12-05T13:10:46.623Z,5.80
2022-12-05T13:13:19.529Z,5.80
2022-12-05T13:15:51.494Z,5.90
2022-12-05T13:18:23.608Z,5.90
2022-12-05T13:20:56.298Z,5.90
2022-12-05T13:23:29.229Z,5.80
2022-12-05T13:26:00.196Z,5.80
2022-12-05T13:28:33.230Z,5.70
2022-12-05T13:31:04.843Z,5.90
2022-12-05T13:33:36.790Z,5.90
2022-12-05T13:36:28.070Z,5.90
2022-12-05T13:39:19.820Z,5.90
2022-12-05T13:42:08.621Z,5.80
2022-12-05T13:44:42.891Z,5.80
2022-12-05T13:47:26.984Z,5.90
2022-12-05T13:50:02.732Z,6.00
2022-12-05T13:52:34.344Z,6.00
2022-12-05T13:55:06.956Z,6.10
2022-12-05T13:57:56.536Z,6.10
2022-12-05T14:00:37.228Z,6.00
2022-12-05T14:03:08.435Z,5.90
2022-12-05T14:05:46.133Z,5.90
2022-12-05T14:09:05.184Z,5.90
2022-12-05T14:11:34.937Z,5.90
2022-12-05T14:14:04.967Z,5.90
2022-12-05T14:16:46.005Z,5.90
2022-12-05T14:19:37.472Z,5.90
2022-12-05T14:22:18.933Z,5.90
2022-12-05T14:24:58.577Z,5.90
2022-12-05T14:27:44.472Z,5.90
2022-12-05T14:30:23.752Z,5.90
2022-12-05T14:32:54.093Z,5.90
2022-12-05T14:35:28.950Z,6.00
2022-12-05T14:37:59.979Z,5.90
2022-12-05T14:40:32.838Z,5.90
2022-12-05T14:43:04.843Z,5.90
2022-12-05T14:45:37.145Z,5.90
2022-12-05T14:48:23.888Z,5.90
2022-12-05T14:50:53.967Z,5.90
2022-12-05T14:53:34.209Z,5.80
2022-12-05T14:56:24.356Z,5.80
2022-12-05T14:58:59.277Z,5.80
2022-12-05T15:01:30.304Z,5.80
2022-12-05T15:04:08.425Z,5.80
2022-12-05T15:06:45.978Z,5.90
2022-12-05T15:09:37.919Z,5.90
2022-12-05T15:12:12.406Z,5.80
2022-12-05T15:14:48.618Z,5.80
2022-12-05T15:17:20.922Z,5.80
2022-12-05T15:19:55.541Z,5.70
2022-12-05T15:22:25.674Z,5.80
2022-12-05T15:24:53.834Z,5.70
2022-12-05T15:27:22.366Z,5.70
2022-12-05T15:29:56.718Z,5.80
2022-12-05T15:32:28.888Z,5.70
2022-12-05T15:35:04.880Z,5.70
2022-12-05T15:37:36.982Z,5.70
2022-12-05T15:40:13.650Z,5.80
2022-12-05T15:42:46.025Z,5.80
2022-12-05T15:45:23.635Z,5.80
2022-12-05T15:47:55.199Z,5.80
2022-12-05T15:50:28.846Z,5.90
2022-12-05T15:52:59.114Z,5.90
2022-12-05T15:55:31.610Z,5.90
2022-12-05T15:58:06.914Z,5.90
2022-12-05T16:00:45.511Z,5.90
2022-12-05T16:03:16.559Z,5.90
2022-12-05T16:05:50.459Z,5.90
2022-12-05T16:08:18.924Z,5.90
2022-12-05T16:10:47.142Z,5.90
2022-12-05T16:13:17.606Z,6.00
2022-12-05T16:15:52.731Z,6.00
2022-12-05T16:18:28.515Z,6.00
2022-12-05T16:20:57.700Z,6.00
2022-12-05T16:23:28.354Z,6.00
2022-12-05T16:26:12.926Z,6.00
2022-12-05T16:28:41.158Z,6.00
2022-12-05T16:31:17.860Z,6.10
2022-12-05T16:33:46.261Z,6.10
2022-12-05T16:36:15.390Z,6.10
2022-12-05T16:38:45.987Z,6.10
2022-12-05T16:41:17.404Z,6.10
2022-12-05T16:43:47.612Z,6.10
2022-12-05T16:46:47.700Z,6.10
2022-12-05T16:49:35.305Z,6.10
2022-12-05T16:52:14.098Z,6.10
2022-12-05T16:54:43.002Z,6.10
2022-12-05T16:57:15.084Z,6.10
2022-12-05T16:59:45.925Z,6.10
2022-12-05T17:02:17.624Z,6.10
2022-12-05T17:04:47.154Z,6.20
2022-12-05T17:07:15.368Z,6.20
2022-12-05T17:09:43.524Z,6.20
2022-12-05T17:12:18.346Z,6.20
2022-12-05T17:14:47.193Z,6.20
2022-12-05T17:17:18.350Z,6.30
2022-12-05T17:19:46.892Z,6.20
2022-12-05T17:22:16.611Z,6.20
2022-12-05T17:24:44.899Z,6.20
2022-12-05T17:27:14.156Z,6.10
2022-12-05T17:29:42.467Z,6.20
2022-12-05T17:32:11.512Z,6.20
2022-12-05T17:34:41.237Z,6.10
2022-12-05T17:37:09.509Z,6.20
2022-12-05T17:39:39.070Z,6.20
2022-12-05T17:42:07.393Z,6.20
2022-12-05T17:44:35.916Z,6.20
2022-12-05T17:47:07.908Z,6.20
2022-12-05T17:49:36.869Z,6.20
2022-12-05T17:52:21.551Z,6.20
2022-12-05T17:54:50.798Z,6.20
2022-12-05T17:57:19.029Z,6.30
2022-12-05T17:59:47.386Z,6.30
2022-12-05T18:02:15.783Z,6.40
2022-12-05T18:04:44.110Z,6.30
2022-12-05T18:07:13.924Z,6.30
2022-12-05T18:09:43.748Z,6.30
2022-12-05T18:12:11.873Z,6.30
2022-12-05T18:14:40.157Z,6.30
2022-12-05T18:17:08.431Z,6.30
2022-12-05T18:19:36.592Z,6.30
2022-12-05T18:22:04.828Z,6.30
2022-12-05T18:24:34.707Z,6.30
2022-12-05T18:27:02.839Z,6.30
2022-12-05T18:29:31.019Z,6.30
2022-12-05T18:31:59.468Z,6.40
2022-12-05T18:34:27.891Z,6.30
2022-12-05T18:36:56.448Z,6.40
2022-12-05T18:39:25.130Z,6.30
2022-12-05T18:41:55.435Z,6.30
2022-12-05T18:44:23.594Z,6.20
2022-12-05T18:46:52.298Z,6.30
2022-12-05T18:49:20.800Z,6.30
2022-12-05T18:51:49.327Z,6.30
2022-12-05T18:54:17.891Z,6.30
2022-12-05T18:56:50.361Z,6.30
2022-12-05T18:59:21.748Z,6.30
2022-12-05T19:01:50.807Z,6.40
2022-12-05T19:04:21.880Z,6.30
2022-12-05T19:06:52.229Z,6.30
2022-12-05T19:09:22.793Z,6.40
2022-12-05T19:11:55.027Z,6.40
2022-12-05T19:14:25.720Z,6.40
2022-12-05T19:16:59.914Z,6.50
2022-12-05T19:19:30.396Z,6.40
2022-12-05T19:21:59.348Z,6.40
2022-12-05T19:24:27.767Z,6.30
2022-12-05T19:26:56.347Z,6.40
2022-12-05T19:29:25.979Z,6.30
2022-12-05T19:31:54.316Z,6.40
2022-12-05T19:34:24.528Z,6.40
2022-12-05T19:36:52.736Z,6.30
2022-12-05T19:39:26.808Z,6.30
2022-12-05T19:41:57.609Z,6.30
2022-12-05T19:44:27.769Z,6.30
2022-12-05T19:46:56.082Z,6.20
2022-12-05T19:49:24.401Z,6.30
2022-12-05T19:51:52.949Z,6.20
2022-12-05T19:54:22.271Z,6.20
2022-12-05T19:56:50.477Z,6.20
2022-12-05T19:59:19.573Z,6.30
2022-12-05T20:01:49.279Z,6.20
2022-12-05T20:04:18.012Z,6.20
2022-12-05T20:06:48.030Z,6.20
2022-12-05T20:09:18.296Z,6.10
2022-12-05T20:11:54.168Z,6.20
2022-12-05T20:14:24.933Z,6.30
2022-12-05T20:16:54.917Z,6.20
2022-12-05T20:19:23.433Z,6.20
2022-12-05T20:21:51.713Z,6.10
2022-12-05T20:24:19.932Z,6.20
2022-12-05T20:26:48.126Z,6.20
2022-12-05T20:29:16.463Z,6.20
2022-12-05T20:31:45.074Z,6.20
2022-12-05T20:34:16.114Z,6.10
2022-12-05T20:36:44.459Z,6.10
2022-12-05T20:39:16.285Z,6.10
2022-12-05T20:41:44.548Z,6.20
2022-12-05T20:44:15.778Z,6.10
2022-12-05T20:46:44.180Z,6.10
2022-12-05T20:49:14.968Z,6.00
2022-12-05T20:51:45.592Z,6.00
2022-12-05T20:54:16.726Z,6.10
2022-12-05T20:56:45.539Z,6.10
2022-12-05T20:59:17.889Z,6.20
2022-12-05T21:01:47.507Z,6.10
2022-12-05T21:04:17.366Z,6.20
2022-12-05T21:06:46.749Z,6.10
2022-12-05T21:09:26.628Z,6.30
2022-12-05T21:11:55.195Z,6.20
2022-12-05T21:14:23.519Z,6.30
2022-12-05T21:16:52.864Z,6.30
2022-12-05T21:19:23.189Z,6.30
2022-12-05T21:21:53.772Z,6.30
2022-12-05T21:24:22.393Z,6.30
2022-12-05T21:26:51.919Z,6.30
2022-12-05T21:29:20.081Z,6.30
2022-12-05T21:31:51.620Z,6.30
2022-12-05T21:34:22.754Z,6.40
2022-12-05T21:36:51.288Z,6.40
2022-12-05T21:39:19.599Z,6.40
2022-12-05T21:41:48.183Z,6.50
2022-12-05T21:44:16.691Z,6.40
2022-12-05T21:46:44.950Z,6.40
2022-12-05T21:49:13.404Z,6.40
2022-12-05T21:51:42.986Z,6.40
2022-12-05T21:54:11.340Z,6.50
2022-12-05T21:56:39.985Z,6.50
2022-12-05T21:59:08.178Z,6.50
2022-12-05T22:01:36.457Z,6.50
2022-12-05T22:04:05.026Z,6.40
2022-12-05T22:06:34.344Z,6.50
2022-12-05T22:09:04.550Z,6.50
2022-12-05T22:11:33.053Z,6.50
2022-12-05T22:14:01.720Z,6.50
2022-12-05T22:16:33.562Z,6.40
2022-12-05T22:19:02.493Z,6.50
2022-12-05T22:21:31.030Z,6.40
2022-12-05T22:23:59.330Z,6.50
2022-12-05T22:26:29.227Z,6.50
2022-12-05T22:28:57.946Z,6.50
2022-12-05T22:31:26.475Z,6.30
2022-12-05T22:33:55.128Z,6.20
2022-12-05T22:36:24.293Z,6.30
2022-12-05T22:38:52.461Z,6.20
2022-12-05T22:41:23.098Z,6.30
2022-12-05T22:43:57.586Z,6.20
2022-12-05T22:46:27.682Z,6.30
2022-12-05T22:48:56.774Z,6.30
2022-12-05T22:51:26.713Z,6.40
2022-12-05T22:53:55.660Z,6.30
2022-12-05T22:56:25.815Z,6.30
2022-12-05T22:58:57.073Z,6.20
2022-12-05T23:01:28.307Z,6.20
2022-12-05T23:03:58.537Z,6.20
2022-12-05T23:06:28.024Z,6.20
2022-12-05T23:08:57.064Z,6.20
2022-12-05T23:11:28.126Z,6.20
2022-12-05T23:14:02.190Z,6.10
2022-12-05T23:16:32.826Z,6.10
2022-12-05T23:19:04.335Z,6.10
2022-12-05T23:21:35.637Z,6.10
2022-12-05T23:24:07.073Z,6.20
2022-12-05T23:26:38.062Z,6.20
2022-12-05T23:29:08.296Z,6.20
2022-12-05T23:31:37.016Z,6.20
2022-12-05T23:34:05.938Z,6.20
2022-12-05T23:36:35.856Z,6.40
2022-12-05T23:39:04.623Z,6.30
2022-12-05T23:41:33.357Z,6.20
2022-12-05T23:44:02.206Z,6.30
2022-12-05T23:46:32.379Z,6.30
2022-12-05T23:49:01.002Z,6.40
2022-12-05T23:51:31.068Z,6.40
2022-12-05T23:54:01.383Z,6.40
2022-12-05T23:56:32.482Z,6.40
2022-12-05T23:59:01.995Z,6.50
